Marlboro, Canada
Current Conditions -  °F | °C
As of 9:00 AM on Thursday 29 Jan 2015 (Local Time) from CYET Reporting Station
Overcast Overcast  
Wind Chill: 19°   Ceiling: 12000
Heat Index: 19°   Visibility: 9mi
Dew Point: 19°   Wind: 0mph
Humidity: 100%   Direction: NA
Pressure: 30.19"   Gusts: NA
Location:  53.55°N, 116.77°W
Report Text: CYET 291600Z AUTO 00000KT 9SM OVC120 M07/M07 A3019 RMK SLP277
Loading
Personal Weather Stations






























Interactive Weather Map New forecast layout! Learn more

10-Day Weather Forecast

Advertisements
Track Severe Weather on mobile